createdAt,value
2018-05-10T00:00:17.585Z,89.07
2018-05-10T00:01:17.586Z,90.12
2018-05-10T00:02:17.574Z,89.26
2018-05-10T00:03:17.572Z,88.59
2018-05-10T00:04:17.566Z,89.17
2018-05-10T00:05:17.573Z,89.07
2018-05-10T00:06:17.549Z,89.17
2018-05-10T00:07:17.553Z,89.17
2018-05-10T00:08:17.547Z,88.69
2018-05-10T00:09:17.538Z,89.07
2018-05-10T00:10:17.540Z,89.74
2018-05-10T00:11:17.535Z,89.36
2018-05-10T00:12:17.521Z,89.54
2018-05-10T00:13:17.537Z,88.69
2018-05-10T00:14:17.520Z,88.98
2018-05-10T00:15:17.512Z,88.78
2018-05-10T00:16:17.508Z,88.31
2018-05-10T00:17:17.501Z,88.21
2018-05-10T00:18:17.500Z,88.69
2018-05-10T00:19:17.489Z,88.17
2018-05-10T00:20:17.505Z,87.79
2018-05-10T00:21:17.487Z,88.07
2018-05-10T00:22:17.482Z,88.36
2018-05-10T00:23:17.475Z,87.98
2018-05-10T00:24:17.484Z,87.79
2018-05-10T00:25:17.458Z,88.17
2018-05-10T00:26:17.471Z,87.69
2018-05-10T00:27:17.454Z,88.36
2018-05-10T00:28:17.455Z,87.79
2018-05-10T00:29:17.452Z,87.79
2018-05-10T00:30:17.448Z,88.26
2018-05-10T00:31:17.436Z,88.45
2018-05-10T00:32:17.427Z,88.84
2018-05-10T00:33:17.421Z,89.40
2018-05-10T00:34:17.422Z,89.79
2018-05-10T00:35:17.425Z,90.12
2018-05-10T00:36:17.404Z,90.41
2018-05-10T00:37:17.410Z,91.55
2018-05-10T00:38:17.407Z,91.36
2018-05-10T00:39:17.390Z,91.27
2018-05-10T00:40:17.392Z,91.17
2018-05-10T00:41:17.391Z,91.64
2018-05-10T00:42:17.387Z,91.74
2018-05-10T00:43:17.380Z,92.32
2018-05-10T00:44:17.390Z,91.36
2018-05-10T00:45:17.368Z,91.46
2018-05-10T00:46:17.356Z,92.12
2018-05-10T00:47:17.359Z,92.41
2018-05-10T00:48:17.356Z,92.12
2018-05-10T00:49:17.365Z,92.03
2018-05-10T00:50:17.348Z,91.64
2018-05-10T00:51:17.348Z,92.12
2018-05-10T00:52:17.348Z,94.03
2018-05-10T00:53:17.339Z,94.03
2018-05-10T00:54:17.339Z,93.93
2018-05-10T00:55:17.333Z,94.51
2018-05-10T00:56:17.314Z,94.41
2018-05-10T00:57:17.320Z,94.79
2018-05-10T00:58:17.314Z,94.79
2018-05-10T00:59:17.397Z,94.70
2018-05-10T01:00:17.316Z,94.41
2018-05-10T01:01:17.297Z,95.27
2018-05-10T01:02:17.297Z,95.51
2018-05-10T01:03:17.289Z,95.32
2018-05-10T01:04:17.284Z,94.74
2018-05-10T01:05:17.283Z,95.12
2018-05-10T01:06:17.291Z,96.37
2018-05-10T01:07:17.274Z,96.08
2018-05-10T01:08:17.264Z,96.37
2018-05-10T01:09:17.297Z,96.75
2018-05-10T01:10:17.265Z,96.08
2018-05-10T01:11:18.209Z,96.46
2018-05-10T01:12:17.247Z,96.27
2018-05-10T01:13:18.228Z,96.46
2018-05-10T01:14:17.241Z,96.46
2018-05-10T01:15:17.234Z,96.27
2018-05-10T01:16:17.230Z,96.46
2018-05-10T01:17:17.223Z,96.61
2018-05-10T01:18:17.223Z,95.89
2018-05-10T01:19:17.212Z,96.51
2018-05-10T01:20:17.213Z,96.84
2018-05-10T01:21:17.217Z,95.51
2018-05-10T01:22:17.197Z,95.70
2018-05-10T01:23:17.232Z,95.22
2018-05-10T01:24:17.197Z,94.56
2018-05-10T01:25:17.193Z,93.31
2018-05-10T01:26:17.185Z,91.60
2018-05-10T01:27:17.182Z,90.64
2018-05-10T01:28:17.178Z,90.83
2018-05-10T01:29:17.177Z,91.16
2018-05-10T01:30:17.169Z,92.55
2018-05-10T02:02:19.255Z,85.77
2018-05-10T02:03:19.209Z,83.20
2018-05-10T02:04:19.204Z,83.67
2018-05-10T02:05:19.182Z,83.11
2018-05-10T02:06:19.174Z,83.01
2018-05-10T02:07:19.167Z,83.01
2018-05-10T02:08:19.176Z,84.44
2018-05-10T02:09:19.141Z,87.97
2018-05-10T02:10:19.138Z,87.87
2018-05-10T02:11:19.157Z,87.68
2018-05-10T02:12:19.127Z,88.07
2018-05-10T02:13:19.120Z,86.92
2018-05-10T02:14:19.129Z,86.82
2018-05-10T02:15:19.124Z,87.11
2018-05-10T02:16:19.103Z,87.30
2018-05-10T02:17:19.095Z,88.45
2018-05-10T02:18:19.088Z,88.35
2018-05-10T02:19:19.086Z,87.40
2018-05-10T02:20:19.071Z,87.59
2018-05-10T02:21:19.078Z,86.73
2018-05-10T02:22:19.067Z,86.06
2018-05-10T02:23:19.067Z,86.35
2018-05-10T02:24:19.069Z,85.97
2018-05-10T02:25:19.050Z,83.96
2018-05-10T02:26:19.067Z,83.48
2018-05-10T02:27:19.043Z,82.53
2018-05-10T02:28:19.052Z,82.01
2018-05-10T02:29:19.029Z,80.24
2018-05-10T02:30:19.029Z,79.48
2018-05-10T02:31:19.030Z,79.86
2018-05-10T02:32:19.029Z,80.24
2018-05-10T02:33:19.022Z,80.43
2018-05-10T02:34:19.005Z,80.15
2018-05-10T02:35:19.010Z,80.05
2018-05-10T02:36:19.784Z,80.05
2018-05-10T02:37:19.001Z,79.10
2018-05-10T02:38:19.012Z,81.77
2018-05-10T02:39:18.997Z,81.20
2018-05-10T02:40:18.988Z,80.62
2018-05-10T02:41:19.014Z,79.57
2018-05-10T02:42:18.986Z,78.72
2018-05-10T02:43:19.061Z,77.67
2018-05-10T02:44:18.976Z,76.90
2018-05-10T02:45:19.014Z,77.57
2018-05-10T02:46:19.008Z,77.09
2018-05-10T02:47:19.018Z,75.85
2018-05-10T02:48:18.942Z,77.57
2018-05-10T02:49:18.943Z,75.57
2018-05-10T02:50:18.946Z,75.47
2018-05-10T02:51:18.956Z,74.71
2018-05-10T02:52:18.935Z,74.42
2018-05-10T02:53:18.928Z,75.76
2018-05-10T02:54:18.926Z,75.66
2018-05-10T02:55:18.936Z,75.85
2018-05-10T02:56:18.917Z,75.76
2018-05-10T02:57:18.914Z,74.99
2018-05-10T02:58:18.920Z,73.18
2018-05-10T02:59:18.905Z,72.99
2018-05-10T03:00:18.904Z,75.57
2018-05-10T03:01:18.897Z,73.56
2018-05-10T03:02:18.896Z,69.52
2018-05-10T03:03:18.903Z,69.56
2018-05-10T03:04:18.916Z,70.98
2018-05-10T03:05:18.905Z,71.18
2018-05-10T03:06:18.889Z,69.08
2018-05-10T03:07:18.871Z,68.03
2018-05-10T03:08:18.860Z,67.46
2018-05-10T03:09:18.850Z,67.17
2018-05-10T03:10:18.855Z,67.74
2018-05-10T03:11:18.864Z,67.93
2018-05-10T03:12:18.847Z,68.12
2018-05-10T03:13:18.844Z,67.83
2018-05-10T03:14:18.836Z,71.75
2018-05-10T03:15:18.861Z,77.00
2018-05-10T03:16:18.864Z,80.15
2018-05-10T03:17:18.842Z,74.42
2018-05-10T03:18:18.847Z,71.84
2018-05-10T03:19:18.829Z,69.56
2018-05-10T03:20:18.861Z,69.08
2018-05-10T03:21:18.807Z,67.55
2018-05-10T03:22:18.798Z,67.36
2018-05-10T03:23:18.796Z,71.27
2018-05-10T03:24:18.799Z,72.23
2018-05-10T03:25:18.805Z,73.08
2018-05-10T03:26:18.790Z,72.32
2018-05-10T03:27:18.782Z,72.89
2018-05-10T03:28:18.774Z,76.42
2018-05-10T03:29:18.776Z,77.76
2018-05-10T03:30:18.780Z,77.76
2018-05-10T03:31:18.773Z,78.14
2018-05-10T03:32:18.760Z,76.90
2018-05-10T03:33:18.837Z,70.98
2018-05-10T03:34:18.756Z,68.70
2018-05-10T03:35:18.770Z,62.97
2018-05-10T03:36:18.744Z,57.34
2018-05-10T03:37:18.742Z,54.29
2018-05-10T03:38:18.738Z,53.91
2018-05-10T03:39:18.742Z,52.57
2018-05-10T03:40:18.743Z,50.38
2018-05-10T03:41:18.721Z,49.62
2018-05-10T03:42:18.754Z,48.57
2018-05-10T03:43:18.724Z,47.03
2018-05-10T03:44:18.725Z,46.08
2018-05-10T03:45:18.729Z,45.70
2018-05-10T03:46:18.738Z,44.74
2018-05-10T03:47:18.692Z,43.89
2018-05-10T03:48:18.706Z,43.79
2018-05-10T03:49:18.701Z,42.74
2018-05-10T03:50:18.696Z,41.79
2018-05-10T03:51:18.684Z,41.60
2018-05-10T03:52:18.685Z,41.31
2018-05-10T03:53:18.675Z,40.83
2018-05-10T03:54:18.683Z,41.10
2018-05-10T03:55:18.670Z,41.39
2018-05-10T03:56:18.679Z,41.10
2018-05-10T03:57:18.683Z,41.58
2018-05-10T03:58:18.698Z,40.81
2018-05-10T03:59:18.699Z,40.63
2018-05-10T04:00:18.650Z,41.67
2018-05-10T04:01:18.643Z,41.10
2018-05-10T04:02:18.634Z,40.81
2018-05-10T04:03:18.632Z,41.39
2018-05-10T04:04:18.627Z,41.67
2018-05-10T04:05:18.624Z,41.67
2018-05-10T04:06:18.622Z,42.05
2018-05-10T04:07:18.614Z,41.86
2018-05-10T04:08:18.609Z,41.48
2018-05-10T04:09:18.605Z,41.58
2018-05-10T04:10:18.594Z,41.10
2018-05-10T04:11:18.617Z,43.20
2018-05-10T04:12:18.591Z,43.10
2018-05-10T04:13:18.591Z,43.10
2018-05-10T04:14:18.578Z,42.44
2018-05-10T04:15:18.571Z,41.96
2018-05-10T04:16:18.574Z,41.86
2018-05-10T04:17:18.590Z,42.44
2018-05-10T04:18:18.572Z,45.97
2018-05-10T04:19:18.578Z,46.63
2018-05-10T04:20:18.561Z,44.82
2018-05-10T04:21:18.601Z,43.77
2018-05-10T04:22:18.565Z,43.01
2018-05-10T04:23:18.540Z,43.10
2018-05-10T04:24:18.540Z,43.20
2018-05-10T04:25:18.559Z,43.49
2018-05-10T04:26:18.549Z,43.87
2018-05-10T04:27:18.528Z,44.34
2018-05-10T04:28:18.528Z,44.34
2018-05-10T04:29:18.520Z,44.53
2018-05-10T04:30:18.518Z,43.96
2018-05-10T04:31:18.503Z,45.01
2018-05-10T04:32:18.542Z,46.15
2018-05-10T04:33:18.513Z,45.20
2018-05-10T04:34:18.511Z,47.30
2018-05-10T04:35:18.518Z,47.39
2018-05-10T04:36:18.504Z,46.92
2018-05-10T04:37:18.484Z,47.97
2018-05-10T04:38:18.495Z,48.25
2018-05-10T04:39:18.471Z,49.33
2018-05-10T04:40:18.482Z,50.38
2018-05-10T04:41:18.472Z,50.85
2018-05-10T04:42:18.490Z,50.54
2018-05-10T04:43:18.460Z,51.23
2018-05-10T04:44:18.453Z,52.48
2018-05-10T04:45:18.470Z,52.73
2018-05-10T04:46:18.445Z,52.28
2018-05-10T04:47:18.457Z,53.62
2018-05-10T04:48:18.455Z,53.62
2018-05-10T04:49:18.435Z,54.10
2018-05-10T04:50:18.438Z,54.00
2018-05-10T04:51:18.428Z,53.91
2018-05-10T04:52:18.437Z,55.24
2018-05-10T04:53:18.442Z,55.72
2018-05-10T04:54:18.449Z,55.82
2018-05-10T04:55:18.445Z,56.01
2018-05-10T04:56:18.431Z,56.38
2018-05-10T04:57:18.436Z,56.38
2018-05-10T04:58:18.463Z,58.11
2018-05-10T04:59:18.438Z,58.77
2018-05-10T05:00:18.410Z,59.06
2018-05-10T05:01:18.401Z,62.68
2018-05-10T05:02:18.398Z,63.07
2018-05-10T05:03:18.386Z,63.83
2018-05-10T05:04:18.366Z,64.50
2018-05-10T05:05:18.371Z,67.55
2018-05-10T05:06:18.363Z,66.02
2018-05-10T05:07:18.381Z,68.88
2018-05-10T05:08:18.365Z,69.21
2018-05-10T05:09:18.352Z,71.59
2018-05-10T05:10:18.377Z,73.98
2018-05-10T05:11:18.351Z,73.69
2018-05-10T05:12:18.344Z,75.22
2018-05-10T05:13:18.349Z,75.93
2018-05-10T05:14:18.327Z,76.98
2018-05-10T05:15:18.333Z,79.17
2018-05-10T05:16:18.328Z,80.04
2018-05-10T05:17:18.326Z,81.56
2018-05-10T05:18:18.321Z,84.47
2018-05-10T05:19:18.317Z,86.67
2018-05-10T05:20:18.315Z,87.72
2018-05-10T05:21:18.317Z,89.25
2018-05-10T05:22:18.307Z,90.63
2018-05-10T05:23:18.303Z,90.73
2018-05-10T05:24:18.316Z,93.98
2018-05-10T05:25:18.289Z,94.46
2018-05-10T05:26:18.289Z,96.18
2018-05-10T05:27:18.292Z,96.75
2018-05-10T05:28:18.296Z,96.70
2018-05-10T05:29:18.283Z,98.14
2018-05-10T05:30:18.289Z,98.33
2018-05-10T05:31:18.295Z,99.99
2018-05-10T05:32:18.273Z,99.99
2018-05-10T05:33:18.274Z,99.99
2018-05-10T05:34:18.275Z,98.04
2018-05-10T05:35:18.267Z,99.99
2018-05-10T05:36:18.276Z,99.99
2018-05-10T05:37:18.274Z,99.99
2018-05-10T05:38:18.261Z,99.99
2018-05-10T05:39:18.259Z,99.99
2018-05-10T05:40:18.275Z,99.99
2018-05-10T05:41:18.321Z,99.99
2018-05-10T05:42:18.254Z,99.99
2018-05-10T05:43:18.294Z,99.99
2018-05-10T05:44:18.251Z,99.99
2018-05-10T05:45:18.246Z,99.99
2018-05-10T05:46:18.252Z,99.99
2018-05-10T05:47:18.243Z,99.99
2018-05-10T05:48:18.237Z,99.99
2018-05-10T05:49:18.237Z,99.99
2018-05-10T05:50:18.235Z,99.99
2018-05-10T05:51:18.347Z,99.99
2018-05-10T05:52:18.228Z,99.99
2018-05-10T05:53:18.235Z,99.99
2018-05-10T05:54:18.232Z,99.99
2018-05-10T05:55:18.224Z,99.99
2018-05-10T05:56:18.221Z,99.99
2018-05-10T05:57:18.220Z,99.99
2018-05-10T05:58:18.217Z,99.99
2018-05-10T05:59:18.222Z,99.99
2018-05-10T06:00:18.206Z,99.99
2018-05-10T06:01:18.210Z,99.99
2018-05-10T06:02:18.208Z,99.99
2018-05-10T06:03:18.234Z,99.99
2018-05-10T06:04:18.214Z,99.99
2018-05-10T06:05:18.225Z,99.99
2018-05-10T06:06:18.198Z,99.99
2018-05-10T06:07:18.195Z,99.99
2018-05-10T06:08:18.223Z,99.99
2018-05-10T06:09:18.192Z,99.99
2018-05-10T06:10:18.191Z,99.99
2018-05-10T06:11:18.185Z,99.99
2018-05-10T06:12:18.184Z,99.99
2018-05-10T06:13:18.176Z,99.99
2018-05-10T06:14:18.180Z,99.99
2018-05-10T06:15:18.178Z,99.99
2018-05-10T06:16:18.173Z,99.99
2018-05-10T06:17:18.172Z,99.99
2018-05-10T06:18:18.173Z,99.99
2018-05-10T06:19:18.166Z,99.99
2018-05-10T06:20:18.165Z,99.99
2018-05-10T06:21:18.186Z,99.99
2018-05-10T06:22:18.163Z,99.99
2018-05-10T06:23:18.164Z,99.99
2018-05-10T06:24:18.152Z,99.99
2018-05-10T06:25:18.161Z,99.99
2018-05-10T06:26:18.157Z,99.99
2018-05-10T06:27:18.169Z,99.99
2018-05-10T06:28:18.167Z,99.99
2018-05-10T06:29:18.165Z,99.99
2018-05-10T06:30:18.148Z,99.99
2018-05-10T06:31:18.142Z,99.99
2018-05-10T06:32:18.140Z,99.99
2018-05-10T06:33:18.133Z,99.99
2018-05-10T06:34:18.140Z,99.99
2018-05-10T06:35:18.142Z,99.99
2018-05-10T06:36:18.136Z,99.99
2018-05-10T06:37:18.150Z,99.99
2018-05-10T06:38:18.144Z,99.99
2018-05-10T06:39:18.131Z,99.99
2018-05-10T06:40:18.134Z,99.99
2018-05-10T06:41:18.137Z,99.99
2018-05-10T06:42:18.126Z,99.99
2018-05-10T06:43:18.116Z,99.99
2018-05-10T06:44:18.117Z,99.99
2018-05-10T06:45:18.114Z,99.99
2018-05-10T06:46:18.114Z,99.99
2018-05-10T06:47:18.113Z,99.99
2018-05-10T06:48:18.107Z,99.99
2018-05-10T06:49:18.101Z,99.99
2018-05-10T06:50:18.103Z,99.99
2018-05-10T06:51:18.099Z,99.99
2018-05-10T06:52:18.098Z,99.99
2018-05-10T06:53:18.094Z,99.99
2018-05-10T06:54:18.094Z,99.99
2018-05-10T06:55:18.086Z,99.99
2018-05-10T06:56:18.135Z,99.99
2018-05-10T06:57:18.092Z,99.99
2018-05-10T06:58:18.092Z,99.99
2018-05-10T06:59:18.092Z,99.99
2018-05-10T07:00:18.083Z,99.99
2018-05-10T07:01:18.084Z,99.99
2018-05-10T07:02:18.081Z,99.99
2018-05-10T07:03:18.137Z,99.99
2018-05-10T07:04:18.094Z,99.99
2018-05-10T07:05:18.081Z,99.99
2018-05-10T07:06:18.083Z,99.99
2018-05-10T07:07:18.084Z,99.99
2018-05-10T07:08:18.080Z,99.99
2018-05-10T07:09:18.127Z,99.99
2018-05-10T07:10:18.079Z,99.99
2018-05-10T07:11:18.087Z,99.99
2018-05-10T07:12:18.078Z,99.99
2018-05-10T07:13:18.082Z,99.99
2018-05-10T07:14:18.078Z,99.99
2018-05-10T07:15:18.107Z,99.99
2018-05-10T07:16:18.077Z,99.99
2018-05-10T07:17:18.077Z,99.99
2018-05-10T07:18:18.076Z,99.99
2018-05-10T07:19:18.074Z,99.99
2018-05-10T07:20:19.120Z,99.99
2018-05-10T07:21:18.073Z,99.99
2018-05-10T07:22:18.069Z,99.99
2018-05-10T07:23:18.063Z,99.99
2018-05-10T07:24:18.067Z,99.99
2018-05-10T07:25:18.208Z,99.99
2018-05-10T07:26:18.068Z,99.99
2018-05-10T07:27:18.064Z,99.99
2018-05-10T07:28:18.065Z,99.99
2018-05-10T07:29:18.063Z,99.99
2018-05-10T07:30:18.059Z,99.99
2018-05-10T07:31:18.061Z,99.99
2018-05-10T07:32:18.061Z,99.99
2018-05-10T07:33:18.054Z,99.99
2018-05-10T07:34:18.055Z,99.99
2018-05-10T07:35:18.047Z,99.99
2018-05-10T07:36:18.054Z,99.99
2018-05-10T07:37:18.083Z,99.99
2018-05-10T07:38:18.051Z,99.99
2018-05-10T07:39:18.055Z,99.99
2018-05-10T07:40:18.051Z,99.99
2018-05-10T07:41:18.050Z,99.99
2018-05-10T07:42:18.051Z,99.99
2018-05-10T07:43:18.094Z,99.99
2018-05-10T07:44:18.042Z,99.99
2018-05-10T07:45:18.037Z,99.99
2018-05-10T07:46:18.048Z,99.99
2018-05-10T07:47:18.093Z,99.99
2018-05-10T07:48:18.038Z,99.99
2018-05-10T07:49:18.037Z,99.99
2018-05-10T07:50:18.049Z,99.99
2018-05-10T07:51:18.086Z,99.99
2018-05-10T07:52:18.042Z,99.99
2018-05-10T07:53:18.099Z,99.99
2018-05-10T07:54:18.042Z,99.99
2018-05-10T07:55:18.039Z,99.99
2018-05-10T07:56:18.042Z,99.99
2018-05-10T07:57:18.035Z,99.99
2018-05-10T07:58:18.055Z,99.99
2018-05-10T07:59:18.029Z,99.99
2018-05-10T08:00:18.035Z,99.99
2018-05-10T08:01:18.032Z,99.99
2018-05-10T08:02:18.137Z,99.99
2018-05-10T08:03:18.031Z,99.99
2018-05-10T08:04:18.036Z,99.99
2018-05-10T08:05:18.026Z,99.99
2018-05-10T08:06:18.032Z,99.99
2018-05-10T08:07:18.860Z,99.99
2018-05-10T08:08:18.050Z,99.99
2018-05-10T08:09:18.026Z,99.99
2018-05-10T08:10:18.038Z,99.99
2018-05-10T08:11:18.024Z,99.99
2018-05-10T08:12:18.020Z,99.99
2018-05-10T08:13:18.017Z,99.99
2018-05-10T08:14:18.769Z,99.99
2018-05-10T08:15:18.768Z,99.99
2018-05-10T08:16:18.025Z,99.99
2018-05-10T08:17:18.110Z,99.99
2018-05-10T08:18:18.037Z,99.99
2018-05-10T08:19:18.036Z,99.99
2018-05-10T08:20:18.050Z,99.99
2018-05-10T08:21:18.040Z,99.99
2018-05-10T08:22:18.064Z,99.99
2018-05-10T08:23:18.033Z,99.99
2018-05-10T08:24:18.858Z,99.99
2018-05-10T08:25:18.038Z,99.99
2018-05-10T08:26:18.039Z,99.99
2018-05-10T08:27:18.036Z,99.99
2018-05-10T08:28:18.041Z,99.99
2018-05-10T08:29:18.043Z,99.99
2018-05-10T08:30:18.150Z,99.40
2018-05-10T08:31:18.043Z,98.53
2018-05-10T08:32:18.038Z,97.86
2018-05-10T08:33:18.048Z,99.58
2018-05-10T08:34:18.049Z,99.10
2018-05-10T08:35:18.051Z,99.78
2018-05-10T08:36:18.057Z,99.40
2018-05-10T08:37:18.058Z,99.30
2018-05-10T08:38:18.059Z,98.53
2018-05-10T08:39:18.055Z,98.10
2018-05-10T08:40:18.045Z,95.50
2018-05-10T08:41:18.059Z,94.78
2018-05-10T08:42:18.077Z,91.80
2018-05-10T08:43:18.069Z,90.12
2018-05-10T08:44:18.065Z,88.10
2018-05-10T08:45:18.071Z,86.56
2018-05-10T08:46:18.108Z,82.90
2018-05-10T08:47:18.124Z,82.75
2018-05-10T08:48:18.081Z,82.08
2018-05-10T08:49:18.086Z,80.38
2018-05-10T08:50:18.115Z,76.36
2018-05-10T08:51:18.097Z,72.67
2018-05-10T08:52:18.103Z,68.84
2018-05-10T08:53:18.113Z,66.14
2018-05-10T08:54:18.117Z,68.30
2018-05-10T08:55:18.125Z,68.23
2018-05-10T08:56:18.125Z,68.91
2018-05-10T08:57:18.166Z,71.77
2018-05-10T08:58:18.145Z,74.05
2018-05-10T08:59:18.154Z,70.64
2018-05-10T09:00:18.160Z,70.25
2018-05-10T09:01:18.172Z,71.95
2018-05-10T09:02:18.184Z,72.33
2018-05-10T09:03:18.199Z,72.68
2018-05-10T09:04:18.192Z,73.47
2018-05-10T09:05:18.197Z,74.82
2018-05-10T09:06:18.203Z,75.54
2018-05-10T09:07:18.213Z,76.50
2018-05-10T09:08:18.255Z,76.50
2018-05-10T09:09:18.224Z,75.44
2018-05-10T09:10:18.232Z,75.24
2018-05-10T09:11:18.241Z,75.79
2018-05-10T09:12:18.248Z,75.79
2018-05-10T09:13:18.239Z,76.17
2018-05-10T09:14:18.241Z,77.13
2018-05-10T09:15:18.267Z,77.51
2018-05-10T09:16:18.251Z,75.69
2018-05-10T09:17:18.266Z,75.49
2018-05-10T09:18:18.280Z,76.61
2018-05-10T09:19:18.280Z,76.94
2018-05-10T09:20:18.367Z,75.98
2018-05-10T09:21:18.287Z,76.26
2018-05-10T09:22:18.292Z,74.92
2018-05-10T09:23:18.294Z,73.86
2018-05-10T09:24:18.302Z,73.28
2018-05-10T09:25:32.902Z,74.25
2018-05-10T09:26:18.309Z,74.48
2018-05-10T09:27:18.323Z,74.29
2018-05-10T09:28:18.326Z,74.19
2018-05-10T09:29:18.326Z,73.61
2018-05-10T09:30:18.333Z,72.63
2018-05-10T09:31:18.339Z,71.95
2018-05-10T09:32:18.346Z,72.18
2018-05-10T09:33:18.352Z,70.83
2018-05-10T09:34:18.361Z,70.73
2018-05-10T09:35:18.380Z,71.12
2018-05-10T09:36:18.384Z,71.12
2018-05-10T09:37:18.386Z,70.09
2018-05-10T09:38:18.392Z,70.09
2018-05-10T09:39:18.435Z,69.45
2018-05-10T09:40:18.416Z,69.32
2018-05-10T09:41:18.408Z,68.99
2018-05-10T09:42:18.417Z,71.37
2018-05-10T09:43:18.427Z,71.18
2018-05-10T09:44:18.430Z,71.24
2018-05-10T09:45:18.439Z,71.49
2018-05-10T09:46:18.463Z,74.29
2018-05-10T09:47:18.452Z,74.48
2018-05-10T09:48:18.463Z,73.90
2018-05-10T09:49:18.464Z,72.65
2018-05-10T09:50:18.472Z,74.54
2018-05-10T09:51:18.480Z,76.14
2018-05-10T09:52:18.484Z,77.76
2018-05-10T09:53:18.490Z,78.11
2018-05-10T09:54:18.496Z,79.94
2018-05-10T09:55:18.504Z,79.07
2018-05-10T09:56:18.507Z,78.78
2018-05-10T09:57:18.511Z,80.13
2018-05-10T09:58:18.515Z,81.48
2018-05-10T09:59:18.521Z,81.24
2018-05-10T10:00:18.530Z,82.34
2018-05-10T10:01:18.527Z,82.63
2018-05-10T10:02:18.531Z,82.53
2018-05-10T10:03:18.536Z,83.53
2018-05-10T10:04:18.537Z,83.63
2018-05-10T10:05:18.557Z,82.29
2018-05-10T10:06:18.570Z,81.99
2018-05-10T10:07:18.611Z,79.69
2018-05-10T10:08:18.548Z,81.04
2018-05-10T10:09:18.575Z,80.17
2018-05-10T10:10:18.555Z,79.69
2018-05-10T10:11:18.576Z,79.88
2018-05-10T10:12:18.563Z,79.79
2018-05-10T10:13:18.565Z,80.07
2018-05-10T10:14:18.607Z,80.36
2018-05-10T10:15:18.571Z,80.36
2018-05-10T10:16:18.572Z,79.84
2018-05-10T10:17:18.572Z,83.01
2018-05-10T10:18:18.580Z,82.97
2018-05-10T10:19:18.582Z,85.18
2018-05-10T10:20:18.600Z,84.80
2018-05-10T10:21:18.606Z,84.60
2018-05-10T10:22:18.592Z,85.28
2018-05-10T10:23:18.597Z,85.95
2018-05-10T10:24:18.607Z,87.19
2018-05-10T10:25:18.664Z,86.81
2018-05-10T10:26:18.603Z,86.96
2018-05-10T10:27:18.625Z,87.01
2018-05-10T10:28:18.607Z,86.68
2018-05-10T10:29:18.609Z,86.58
2018-05-10T10:30:18.622Z,87.54
2018-05-10T10:31:18.612Z,87.54
2018-05-10T10:32:18.642Z,89.26
2018-05-10T10:33:18.614Z,90.13
2018-05-10T10:34:18.615Z,89.94
2018-05-10T10:35:18.610Z,90.80
2018-05-10T10:36:18.623Z,90.75
2018-05-10T10:37:18.614Z,91.14
2018-05-10T10:38:18.726Z,93.06
2018-05-10T10:39:18.620Z,92.48
2018-05-10T10:40:18.650Z,93.30
2018-05-10T10:41:18.640Z,94.49
2018-05-10T10:42:18.634Z,94.88
2018-05-10T10:43:18.639Z,94.83
2018-05-10T10:44:18.647Z,92.53
2018-05-10T10:45:18.732Z,91.96
2018-05-10T10:46:18.644Z,92.33
2018-05-10T10:47:18.655Z,90.99
2018-05-10T10:48:18.641Z,90.61
2018-05-10T10:49:18.650Z,89.75
2018-05-10T10:50:18.646Z,87.92
2018-05-10T10:51:18.646Z,87.77
2018-05-10T10:52:18.648Z,87.72
2018-05-10T10:53:18.649Z,88.97
2018-05-10T10:54:18.650Z,90.03
2018-05-10T10:55:18.639Z,87.24
2018-05-10T10:56:18.633Z,87.53
2018-05-10T10:57:18.649Z,85.61
2018-05-10T10:58:18.647Z,84.11
2018-05-10T10:59:18.649Z,83.87
2018-05-10T11:00:18.647Z,82.48
2018-05-10T11:01:18.660Z,83.69
2018-05-10T11:02:18.671Z,82.96
2018-05-10T11:03:18.676Z,82.09
2018-05-10T11:04:18.661Z,82.57
2018-05-10T11:05:18.663Z,82.09
2018-05-10T11:06:18.665Z,80.75
2018-05-10T11:07:18.695Z,80.90
2018-05-10T11:08:18.676Z,81.15
2018-05-10T11:09:18.678Z,84.60
2018-05-10T11:10:18.679Z,84.45
2018-05-10T11:11:18.685Z,83.01
2018-05-10T11:12:18.690Z,83.20
2018-05-10T11:13:18.693Z,81.61
2018-05-10T11:14:18.698Z,81.23
2018-05-10T11:15:18.709Z,81.04
2018-05-10T11:16:18.708Z,81.13
2018-05-10T11:17:18.706Z,81.84
2018-05-10T11:18:18.706Z,80.60
2018-05-10T11:19:18.710Z,78.48
2018-05-10T11:20:18.725Z,78.67
2018-05-10T11:21:18.719Z,78.92
2018-05-10T11:22:18.727Z,80.36
2018-05-10T11:23:18.733Z,79.02
2018-05-10T11:24:18.740Z,81.46
2018-05-10T11:25:18.739Z,79.82
2018-05-10T11:26:18.740Z,81.75
2018-05-10T11:27:18.788Z,79.44
2018-05-10T11:28:18.749Z,79.02
2018-05-10T11:29:18.758Z,82.43
2018-05-10T11:30:18.759Z,84.07
2018-05-10T11:31:18.762Z,84.07
2018-05-10T11:32:18.767Z,83.97
2018-05-10T11:33:18.852Z,82.38
2018-05-10T11:34:18.780Z,83.40
2018-05-10T11:35:19.335Z,85.13
2018-05-10T11:36:19.335Z,83.92
2018-05-10T11:37:18.785Z,86.32
2018-05-10T11:38:18.952Z,83.83
2018-05-10T11:39:18.790Z,83.63
2018-05-10T11:40:18.796Z,82.67
2018-05-10T11:41:18.820Z,84.01
2018-05-10T11:42:18.802Z,84.06
2018-05-10T11:43:18.807Z,82.71
2018-05-10T11:44:18.811Z,80.02
2018-05-10T11:45:18.811Z,81.30
2018-05-10T11:46:18.824Z,79.28
2018-05-10T11:47:18.814Z,79.05
2018-05-10T11:48:18.812Z,81.96
2018-05-10T11:49:18.825Z,85.57
2018-05-10T11:50:18.830Z,90.08
2018-05-10T11:51:18.828Z,94.02
2018-05-10T11:52:18.874Z,96.08
2018-05-10T11:53:18.846Z,97.61
2018-05-10T11:54:18.857Z,97.90
2018-05-10T11:55:18.852Z,98.62
2018-05-10T11:56:19.416Z,98.53
2018-05-10T11:57:18.894Z,97.66
2018-05-10T11:58:18.855Z,97.76
2018-05-10T11:59:18.862Z,98.33
2018-05-10T12:00:18.859Z,98.91
2018-05-10T12:01:18.882Z,97.76
2018-05-10T12:02:18.870Z,97.47
2018-05-10T12:03:18.865Z,97.76
2018-05-10T12:04:18.865Z,97.42
2018-05-10T12:05:18.868Z,96.94
2018-05-10T12:06:18.864Z,96.08
2018-05-10T12:07:18.874Z,95.84
2018-05-10T12:08:18.871Z,95.17
2018-05-10T12:09:18.875Z,94.59
2018-05-10T12:10:18.883Z,93.82
2018-05-10T12:11:18.891Z,93.19
2018-05-10T12:12:18.871Z,92.81
2018-05-10T12:13:18.956Z,90.75
2018-05-10T12:14:18.878Z,88.00
2018-05-10T12:15:18.883Z,86.85
2018-05-10T12:16:18.884Z,84.29
2018-05-10T12:17:18.881Z,82.61
2018-05-10T12:18:18.881Z,84.06
2018-05-10T12:19:18.950Z,82.61
2018-05-10T12:20:18.956Z,83.83
2018-05-10T12:21:18.897Z,89.45
2018-05-10T12:22:18.921Z,92.33
2018-05-10T12:23:18.906Z,94.64
2018-05-10T12:24:19.421Z,95.79
2018-05-10T12:25:18.918Z,96.37
2018-05-10T12:26:18.928Z,95.70
2018-05-10T12:27:18.921Z,96.27
2018-05-10T12:28:18.911Z,97.28
2018-05-10T12:29:18.935Z,94.73
2018-05-10T12:30:18.950Z,88.92
2018-05-10T12:31:18.921Z,85.31
2018-05-10T12:32:18.935Z,84.44
2018-05-10T12:33:18.930Z,83.81
2018-05-10T12:34:18.943Z,83.33
2018-05-10T12:35:18.939Z,83.33
2018-05-10T12:36:18.947Z,83.77
2018-05-10T12:37:18.960Z,84.19
2018-05-10T12:38:18.951Z,85.65
2018-05-10T12:39:18.954Z,86.47
2018-05-10T12:40:18.959Z,88.30
2018-05-10T12:41:18.978Z,90.66
2018-05-10T12:42:18.968Z,93.49
2018-05-10T12:43:18.973Z,96.56
2018-05-10T12:44:18.973Z,96.03
2018-05-10T12:45:18.992Z,95.94
2018-05-10T12:46:18.979Z,95.94
2018-05-10T12:47:18.981Z,96.51
2018-05-10T12:48:18.985Z,94.69
2018-05-10T12:49:18.992Z,94.49
2018-05-10T12:50:18.992Z,94.31
2018-05-10T12:51:19.932Z,94.54
2018-05-10T12:52:18.994Z,94.64
2018-05-10T12:53:19.004Z,94.45
2018-05-10T12:54:18.996Z,95.31
2018-05-10T12:55:19.006Z,99.01
2018-05-10T12:56:19.119Z,99.99
2018-05-10T12:57:19.013Z,99.99
2018-05-10T12:58:19.010Z,99.99
2018-05-10T12:59:19.012Z,99.99
2018-05-10T13:00:19.011Z,99.99
2018-05-10T13:01:19.017Z,99.99
2018-05-10T13:02:19.010Z,99.99
2018-05-10T13:03:19.015Z,99.99
2018-05-10T13:04:19.027Z,99.99
2018-05-10T13:05:19.026Z,99.99
2018-05-10T13:06:19.015Z,99.99
2018-05-10T13:07:19.031Z,99.99
2018-05-10T13:08:19.070Z,99.34
2018-05-10T13:09:19.011Z,99.99
2018-05-10T13:10:19.023Z,99.99
2018-05-10T13:11:19.035Z,99.99
2018-05-10T13:12:19.013Z,99.99
2018-05-10T13:13:19.084Z,99.99
2018-05-10T13:14:19.010Z,99.99
2018-05-10T13:15:19.023Z,99.99
2018-05-10T13:16:19.013Z,99.99
2018-05-10T13:17:19.013Z,99.99
2018-05-10T13:18:19.030Z,99.99
2018-05-10T13:19:19.097Z,99.99
2018-05-10T13:20:19.009Z,99.99
2018-05-10T13:21:19.012Z,99.99
2018-05-10T13:22:19.016Z,99.99
2018-05-10T13:23:19.012Z,99.99